createdAt,value
2023-05-11T00:01:08.404Z,6.37
2023-05-11T00:03:36.718Z,6.27
2023-05-11T00:06:04.947Z,5.87
2023-05-11T00:08:32.867Z,6.37
2023-05-11T00:11:01.753Z,5.67
2023-05-11T00:13:30.165Z,6.10
2023-05-11T00:15:58.644Z,6.83
2023-05-11T00:18:27.978Z,6.17
2023-05-11T00:20:56.704Z,6.10
2023-05-11T00:23:24.674Z,6.27
2023-05-11T00:25:52.508Z,6.73
2023-05-11T00:28:20.534Z,6.40
2023-05-11T00:30:48.463Z,6.83
2023-05-11T00:33:16.328Z,6.40
2023-05-11T00:35:45.611Z,6.07
2023-05-11T00:38:13.456Z,5.97
2023-05-11T00:40:41.441Z,6.00
2023-05-11T00:43:09.404Z,5.97
2023-05-11T00:45:37.537Z,6.97
2023-05-11T00:48:05.801Z,6.43
2023-05-11T00:50:33.699Z,5.60
2023-05-11T00:53:03.109Z,5.93
2023-05-11T00:55:31.802Z,6.63
2023-05-11T00:58:00.646Z,6.83
2023-05-11T01:00:28.610Z,5.30
2023-05-11T01:02:57.052Z,6.63
2023-05-11T01:05:31.302Z,5.93
2023-05-11T01:08:06.649Z,6.57
2023-05-11T01:10:43.293Z,7.23
2023-05-11T01:13:18.705Z,6.23
2023-05-11T01:15:51.846Z,7.47
2023-05-11T01:18:26.295Z,6.90
2023-05-11T01:20:58.692Z,6.23
2023-05-11T01:23:46.224Z,6.10
2023-05-11T01:26:35.084Z,5.77
2023-05-11T01:29:36.475Z,5.37
2023-05-11T01:32:09.407Z,7.57
2023-05-11T01:34:41.787Z,7.40
2023-05-11T01:37:13.932Z,6.07
2023-05-11T01:39:47.237Z,5.93
2023-05-11T01:42:17.001Z,7.20
2023-05-11T01:44:51.569Z,6.50
2023-05-11T01:47:22.637Z,6.13
2023-05-11T01:49:53.115Z,6.50
2023-05-11T01:52:22.469Z,6.23
2023-05-11T01:54:52.973Z,6.00
2023-05-11T01:57:22.884Z,6.47
2023-05-11T01:59:52.963Z,6.87
2023-05-11T02:02:22.949Z,7.77
2023-05-11T02:04:52.538Z,6.77
2023-05-11T02:07:21.793Z,6.83
2023-05-11T02:09:51.063Z,6.60
2023-05-11T02:12:20.431Z,5.53
2023-05-11T02:14:49.878Z,6.87
2023-05-11T02:17:20.151Z,6.67
2023-05-11T02:19:50.546Z,6.97
2023-05-11T02:22:20.716Z,6.97
2023-05-11T02:24:49.639Z,7.17
2023-05-11T02:27:17.615Z,6.57
2023-05-11T02:29:46.512Z,8.57
2023-05-11T02:32:18.367Z,7.93
2023-05-11T02:34:55.520Z,7.90
2023-05-11T02:37:26.736Z,9.17
2023-05-11T02:40:00.526Z,8.70
2023-05-11T02:42:31.093Z,7.03
2023-05-11T02:45:03.399Z,8.07
2023-05-11T02:47:37.137Z,8.53
2023-05-11T02:50:09.355Z,7.20
2023-05-11T02:52:42.466Z,6.63
2023-05-11T02:55:12.025Z,6.93
2023-05-11T02:57:40.252Z,6.90
2023-05-11T03:00:10.053Z,6.53
2023-05-11T03:02:38.076Z,7.07
2023-05-11T03:05:08.288Z,6.63
2023-05-11T03:07:36.562Z,7.30
2023-05-11T03:10:05.239Z,6.73
2023-05-11T03:12:34.653Z,6.20
2023-05-11T03:15:04.159Z,6.60
2023-05-11T03:17:32.563Z,7.90
2023-05-11T03:20:03.751Z,6.50
2023-05-11T03:22:33.733Z,7.47
2023-05-11T03:25:03.871Z,7.90
2023-05-11T03:27:34.281Z,6.93
2023-05-11T03:30:04.211Z,6.70
2023-05-11T03:32:32.092Z,6.60
2023-05-11T03:35:00.061Z,7.47
2023-05-11T03:37:30.913Z,7.90
2023-05-11T03:40:02.194Z,7.27
2023-05-11T03:42:32.090Z,7.30
2023-05-11T03:45:01.422Z,7.37
2023-05-11T03:47:30.839Z,8.20
2023-05-11T03:50:00.034Z,8.37
2023-05-11T03:52:28.371Z,7.37
2023-05-11T03:54:56.385Z,6.73
2023-05-11T03:57:28.005Z,7.10
2023-05-11T03:59:56.057Z,7.47
2023-05-11T04:02:24.556Z,7.67
2023-05-11T04:04:53.452Z,7.60
2023-05-11T04:07:21.676Z,7.60
2023-05-11T04:09:49.585Z,7.67
2023-05-11T04:12:17.566Z,7.63
2023-05-11T04:14:46.785Z,8.83
2023-05-11T04:17:14.603Z,9.33
2023-05-11T04:19:42.752Z,8.63
2023-05-11T04:22:12.258Z,8.10
2023-05-11T04:24:40.393Z,6.63
2023-05-11T04:27:08.221Z,7.80
2023-05-11T04:29:36.247Z,6.57
2023-05-11T04:32:06.054Z,6.57
2023-05-11T04:34:33.989Z,6.73
2023-05-11T04:37:07.185Z,6.67
2023-05-11T04:39:35.308Z,7.00
2023-05-11T04:42:03.309Z,7.67
2023-05-11T04:44:31.188Z,6.00
2023-05-11T04:46:59.207Z,5.70
2023-05-11T04:49:28.527Z,6.63
2023-05-11T04:51:57.040Z,5.50
2023-05-11T04:54:24.974Z,6.20
2023-05-11T04:56:52.915Z,5.67
2023-05-11T04:59:20.925Z,6.20
2023-05-11T05:01:48.813Z,6.20
2023-05-11T05:04:16.958Z,8.17
2023-05-11T05:06:46.864Z,6.53
2023-05-11T05:09:14.709Z,6.40
2023-05-11T05:11:42.628Z,6.60
2023-05-11T05:14:10.702Z,6.73
2023-05-11T05:16:38.687Z,6.87
2023-05-11T05:19:06.722Z,6.70
2023-05-11T05:21:35.898Z,6.60
2023-05-11T05:24:06.916Z,5.83
2023-05-11T05:26:34.961Z,6.47
2023-05-11T05:29:02.888Z,6.37
2023-05-11T05:31:31.198Z,6.23
2023-05-11T05:33:59.114Z,5.70
2023-05-11T05:36:27.011Z,5.43
2023-05-11T05:38:54.874Z,5.77
2023-05-11T05:41:24.176Z,5.30
2023-05-11T05:43:52.060Z,5.50
2023-05-11T05:46:19.964Z,5.27
2023-05-11T05:48:47.939Z,5.83
2023-05-11T05:51:16.489Z,5.53
2023-05-11T05:53:44.418Z,6.13
2023-05-11T05:56:12.364Z,5.93
2023-05-11T05:58:41.642Z,5.73
2023-05-11T06:01:09.960Z,5.70
2023-05-11T06:03:38.705Z,6.00
2023-05-11T06:06:07.231Z,5.80
2023-05-11T06:08:35.170Z,6.47
2023-05-11T06:11:03.119Z,6.07
2023-05-11T06:13:31.016Z,6.33
2023-05-11T06:16:00.350Z,6.13
2023-05-11T06:18:28.333Z,5.87
2023-05-11T06:20:56.351Z,5.20
2023-05-11T06:23:24.312Z,6.47
2023-05-11T06:25:52.248Z,5.70
2023-05-11T06:28:20.113Z,6.47
2023-05-11T06:30:48.151Z,7.03
2023-05-11T06:33:17.542Z,6.70
2023-05-11T06:35:45.602Z,6.47
2023-05-11T06:38:13.497Z,6.60
2023-05-11T06:40:41.466Z,5.37
2023-05-11T06:43:09.467Z,5.83
2023-05-11T06:45:37.612Z,6.70
2023-05-11T06:48:05.933Z,6.00
2023-05-11T06:50:35.314Z,6.17
2023-05-11T06:53:03.233Z,6.63
2023-05-11T06:55:31.191Z,5.37
2023-05-11T06:57:59.075Z,5.77
2023-05-11T07:00:27.203Z,5.80
2023-05-11T07:02:55.285Z,6.33
2023-05-11T07:05:23.805Z,6.50
2023-05-11T07:07:53.101Z,5.80
2023-05-11T07:10:21.260Z,6.13
2023-05-11T07:12:49.402Z,6.20
2023-05-11T07:15:17.395Z,6.37
2023-05-11T07:17:47.797Z,5.83
2023-05-11T07:20:16.369Z,5.57
2023-05-11T07:22:44.504Z,5.33
2023-05-11T07:25:13.831Z,6.17
2023-05-11T07:27:41.708Z,5.90
2023-05-11T07:30:10.772Z,6.03
2023-05-11T07:32:38.850Z,6.33
2023-05-11T07:35:07.914Z,5.80
2023-05-11T07:37:35.792Z,5.83
2023-05-11T07:40:04.693Z,5.90
2023-05-11T07:42:34.008Z,6.07
2023-05-11T07:45:01.916Z,6.20
2023-05-11T07:47:29.890Z,5.77
2023-05-11T07:49:57.822Z,5.80
2023-05-11T07:52:25.887Z,5.83
2023-05-11T07:54:53.834Z,6.00
2023-05-11T07:57:21.890Z,5.97
2023-05-11T07:59:51.321Z,6.30
2023-05-11T08:02:19.985Z,5.10
2023-05-11T08:04:48.043Z,6.30
2023-05-11T08:07:16.064Z,5.43
2023-05-11T08:09:44.422Z,6.10
2023-05-11T08:12:12.423Z,6.23
2023-05-11T08:14:40.380Z,5.47
2023-05-11T08:17:09.694Z,5.70
2023-05-11T08:19:37.763Z,5.83
2023-05-11T08:22:06.206Z,5.33
2023-05-11T08:24:34.054Z,6.23
2023-05-11T08:27:02.829Z,6.53
2023-05-11T08:29:30.779Z,5.90
2023-05-11T08:31:59.163Z,5.43
2023-05-11T08:34:28.783Z,6.37
2023-05-11T08:36:56.755Z,6.53
2023-05-11T08:39:45.434Z,6.03
2023-05-11T08:42:15.062Z,6.03
2023-05-11T08:44:44.568Z,5.83
2023-05-11T08:49:46.049Z,6.03
2023-05-11T08:52:15.447Z,6.13
2023-05-11T08:54:43.332Z,5.30
2023-05-11T08:57:12.157Z,6.50
2023-05-11T08:59:42.183Z,7.07
2023-05-11T09:02:14.470Z,5.77
2023-05-11T09:04:44.164Z,5.97
2023-05-11T09:07:16.517Z,6.73
2023-05-11T09:09:44.455Z,5.83
2023-05-11T09:12:13.411Z,5.73
2023-05-11T09:14:41.504Z,6.97
2023-05-11T09:17:09.789Z,6.57
2023-05-11T09:19:37.797Z,7.13
2023-05-11T09:22:06.961Z,5.40
2023-05-11T09:24:36.694Z,6.13
2023-05-11T09:27:09.259Z,7.10
2023-05-11T09:29:37.484Z,6.03
2023-05-11T09:32:06.229Z,7.17
2023-05-11T09:34:34.224Z,5.97
2023-05-11T09:37:02.356Z,5.70
2023-05-11T09:39:38.097Z,5.93
2023-05-11T09:42:18.209Z,6.33
2023-05-11T09:44:47.353Z,6.27
2023-05-11T09:47:17.608Z,7.23
2023-05-11T09:49:47.781Z,6.93
2023-05-11T09:52:17.529Z,6.10
2023-05-11T09:54:47.794Z,6.33
2023-05-11T09:57:27.855Z,5.47
2023-05-11T09:59:56.928Z,6.17
2023-05-11T10:02:26.473Z,6.43
2023-05-11T10:04:55.611Z,5.67
2023-05-11T10:07:31.451Z,5.47
2023-05-11T10:10:01.721Z,5.70
2023-05-11T10:12:33.472Z,6.47
2023-05-11T10:15:04.359Z,6.67
2023-05-11T10:17:33.142Z,6.90
2023-05-11T10:20:04.295Z,6.43
2023-05-11T10:22:32.921Z,6.13
2023-05-11T10:25:01.603Z,6.57
2023-05-11T10:27:32.903Z,6.97
2023-05-11T10:30:01.817Z,6.83
2023-05-11T10:32:30.789Z,7.20
2023-05-11T10:34:59.377Z,6.90
2023-05-11T10:37:28.552Z,6.97
2023-05-11T10:39:58.284Z,6.33
2023-05-11T10:42:42.621Z,7.03
2023-05-11T10:45:22.633Z,7.20
2023-05-11T10:48:10.854Z,7.00
2023-05-11T10:50:54.281Z,7.27
2023-05-11T10:53:44.144Z,6.97
2023-05-11T10:56:27.421Z,7.53
2023-05-11T10:59:22.454Z,8.17
2023-05-11T11:01:52.286Z,6.33
2023-05-11T11:04:20.594Z,7.23
2023-05-11T11:06:48.685Z,7.03
2023-05-11T11:09:17.663Z,5.93
2023-05-11T11:11:47.302Z,6.57
2023-05-11T11:14:17.922Z,7.03
2023-05-11T11:17:24.378Z,6.70
2023-05-11T11:19:52.418Z,6.43
2023-05-11T11:22:47.417Z,7.43
2023-05-11T11:25:17.614Z,7.50
2023-05-11T11:27:59.825Z,7.10
2023-05-11T11:30:30.790Z,8.03
2023-05-11T11:33:33.164Z,8.30
2023-05-11T11:36:01.133Z,7.90
2023-05-11T11:38:29.729Z,7.23
2023-05-11T11:40:57.893Z,7.33
2023-05-11T11:43:27.575Z,8.20
2023-05-11T11:45:58.440Z,7.10
2023-05-11T11:48:35.677Z,7.10
2023-05-11T11:51:05.958Z,7.27
2023-05-11T11:54:07.412Z,7.53
2023-05-11T11:56:41.746Z,7.60
2023-05-11T11:59:14.195Z,7.07
2023-05-11T12:01:45.179Z,7.23
2023-05-11T12:04:44.501Z,7.90
2023-05-11T12:07:14.528Z,7.57
2023-05-11T12:09:42.529Z,8.43
2023-05-11T12:12:11.340Z,7.43
2023-05-11T12:14:40.813Z,7.63
2023-05-11T12:17:15.386Z,7.90
2023-05-11T12:19:44.878Z,7.50
2023-05-11T12:22:14.881Z,6.87
2023-05-11T12:24:44.094Z,6.67
2023-05-11T12:27:12.110Z,7.33
2023-05-11T12:29:41.390Z,7.43
2023-05-11T12:32:14.492Z,6.90
2023-05-11T12:34:42.490Z,7.27
2023-05-11T12:37:10.612Z,7.83
2023-05-11T12:39:39.665Z,6.97
2023-05-11T12:42:07.776Z,7.07
2023-05-11T12:44:36.406Z,7.53
2023-05-11T12:47:05.009Z,7.40
2023-05-11T12:49:34.460Z,7.57
2023-05-11T12:52:08.023Z,7.30
2023-05-11T12:54:38.835Z,7.70
2023-05-11T12:57:08.022Z,7.40
2023-05-11T12:59:38.942Z,8.17
2023-05-11T13:02:12.498Z,6.80
2023-05-11T13:04:43.612Z,7.20
2023-05-11T13:07:13.167Z,7.47
2023-05-11T13:09:41.552Z,7.60
2023-05-11T13:12:11.360Z,7.00
2023-05-11T13:14:39.458Z,6.80
2023-05-11T13:17:07.544Z,7.50
2023-05-11T13:19:37.493Z,7.47
2023-05-11T13:22:08.364Z,7.00
2023-05-11T13:24:36.359Z,7.27
2023-05-11T13:27:04.262Z,6.93
2023-05-11T13:29:32.201Z,7.93
2023-05-11T13:32:00.291Z,7.43
2023-05-11T13:34:28.274Z,6.97
2023-05-11T13:36:56.210Z,6.97
2023-05-11T13:39:25.566Z,7.37
2023-05-11T13:41:55.597Z,7.50
2023-05-11T13:44:24.051Z,7.57
2023-05-11T13:46:51.989Z,6.97
2023-05-11T13:49:19.918Z,6.63
2023-05-11T13:51:47.747Z,6.70
2023-05-11T13:54:15.794Z,7.27
2023-05-11T13:56:45.089Z,7.90
2023-05-11T13:59:12.981Z,8.40
2023-05-11T14:01:40.985Z,8.47
2023-05-11T14:04:08.933Z,7.93
2023-05-11T14:06:37.035Z,7.80
2023-05-11T14:09:05.322Z,7.40
2023-05-11T14:11:33.270Z,8.50
2023-05-11T14:14:03.082Z,7.80
2023-05-11T14:16:31.157Z,7.93
2023-05-11T14:18:59.145Z,8.17
2023-05-11T14:21:27.128Z,7.60
2023-05-11T14:24:10.007Z,8.43
2023-05-11T14:26:39.372Z,9.03
2023-05-11T14:29:08.948Z,7.70
2023-05-11T14:31:37.876Z,7.23
2023-05-11T14:34:06.268Z,7.93
2023-05-11T14:36:34.388Z,7.50
2023-05-11T14:39:02.754Z,7.27
2023-05-11T14:41:31.165Z,6.93
2023-05-11T14:43:59.100Z,7.63
2023-05-11T14:46:28.864Z,7.90
2023-05-11T14:48:56.896Z,6.90
2023-05-11T14:51:25.122Z,7.27
2023-05-11T14:53:53.104Z,7.40
2023-05-11T14:56:22.107Z,7.73
2023-05-11T14:58:50.151Z,7.43
2023-05-11T15:01:18.108Z,7.57
2023-05-11T15:03:47.568Z,7.60
2023-05-11T15:06:21.184Z,6.77
2023-05-11T15:08:49.737Z,7.00
2023-05-11T15:11:17.708Z,6.33
2023-05-11T15:13:47.410Z,7.13
2023-05-11T15:16:15.990Z,7.60
2023-05-11T15:18:43.951Z,7.20
2023-05-11T15:21:13.227Z,6.27
2023-05-11T15:23:41.175Z,6.50
2023-05-11T15:26:09.069Z,7.47
2023-05-11T15:28:37.043Z,6.53
2023-05-11T15:31:05.273Z,7.60
2023-05-11T15:33:33.500Z,7.30
2023-05-11T15:36:01.441Z,7.63
2023-05-11T15:38:31.155Z,7.47
2023-05-11T15:40:59.221Z,7.20
2023-05-11T15:43:27.130Z,7.03
2023-05-11T15:45:55.428Z,6.27
2023-05-11T15:48:23.489Z,7.37
2023-05-11T15:50:51.383Z,6.57
2023-05-11T15:53:19.422Z,7.40
2023-05-11T15:55:51.022Z,7.30
2023-05-11T15:58:19.074Z,7.23
2023-05-11T16:00:47.176Z,7.23
2023-05-11T16:03:15.408Z,7.70
2023-05-11T16:05:43.421Z,7.53
2023-05-11T16:08:11.396Z,6.90
2023-05-11T16:10:39.425Z,7.50
2023-05-11T16:13:09.081Z,7.03
2023-05-11T16:15:36.986Z,6.90
2023-05-11T16:18:05.722Z,6.90
2023-05-11T16:20:33.741Z,7.30
2023-05-11T16:23:01.776Z,6.87
2023-05-11T16:25:30.300Z,7.80
2023-05-11T16:27:58.215Z,7.63
2023-05-11T16:30:27.851Z,6.97
2023-05-11T16:32:55.889Z,7.90
2023-05-11T16:35:23.953Z,7.77
2023-05-11T16:37:52.528Z,6.83
2023-05-11T16:40:21.389Z,6.20
2023-05-11T16:42:49.780Z,8.00
2023-05-11T16:45:17.910Z,6.20
2023-05-11T16:47:47.392Z,7.07
2023-05-11T16:50:16.416Z,6.17
2023-05-11T16:52:45.243Z,7.20
2023-05-11T16:55:13.267Z,6.77
2023-05-11T16:57:41.486Z,6.20
2023-05-11T17:00:10.214Z,7.33
2023-05-11T17:02:38.387Z,6.73
2023-05-11T17:05:08.889Z,6.37
2023-05-11T17:07:36.905Z,6.40
2023-05-11T17:10:05.556Z,7.73
2023-05-11T17:12:35.664Z,7.17
2023-05-11T17:15:03.736Z,7.37
2023-05-11T17:17:31.802Z,6.43
2023-05-11T17:20:01.320Z,6.03
2023-05-11T17:22:30.679Z,6.43
2023-05-11T17:24:58.717Z,6.37
2023-05-11T17:27:26.630Z,6.57
2023-05-11T17:29:54.576Z,7.40
2023-05-11T17:32:23.305Z,6.10
2023-05-11T17:34:51.485Z,6.87
2023-05-11T17:37:31.353Z,7.83
2023-05-11T17:40:02.564Z,7.30
2023-05-11T17:42:30.912Z,6.90
2023-05-11T17:44:58.964Z,6.43
2023-05-11T17:47:27.295Z,7.07
2023-05-11T17:49:55.300Z,6.03
2023-05-11T17:52:24.656Z,6.27
2023-05-11T17:54:52.949Z,5.87
2023-05-11T17:57:23.673Z,5.83
2023-05-11T17:59:51.799Z,7.70
2023-05-11T18:02:19.992Z,6.23
2023-05-11T18:04:48.324Z,6.27
2023-05-11T18:07:16.297Z,6.73
2023-05-11T18:09:44.172Z,5.90
2023-05-11T18:12:12.720Z,6.70
2023-05-11T18:14:42.747Z,6.13
2023-05-11T18:17:10.771Z,6.57
2023-05-11T18:19:38.765Z,6.30
2023-05-11T18:22:06.881Z,5.83
2023-05-11T18:24:34.840Z,5.50
2023-05-11T18:27:02.768Z,6.27
2023-05-11T18:29:30.751Z,6.53
2023-05-11T18:32:00.169Z,5.33
2023-05-11T18:34:28.195Z,6.07
2023-05-11T18:36:56.168Z,7.07
2023-05-11T18:39:24.259Z,5.83
2023-05-11T18:41:52.268Z,5.77
2023-05-11T18:44:20.223Z,6.03
2023-05-11T18:46:48.302Z,5.87
2023-05-11T18:49:17.691Z,6.90
2023-05-11T18:51:45.688Z,7.20
2023-05-11T18:54:13.698Z,5.60
2023-05-11T18:56:41.647Z,6.60
2023-05-11T18:59:09.596Z,7.23
2023-05-11T19:01:47.202Z,6.17
2023-05-11T19:04:19.916Z,5.93
2023-05-11T19:06:48.236Z,5.73
2023-05-11T19:09:16.267Z,5.70
2023-05-11T19:11:44.303Z,5.73
2023-05-11T19:14:14.702Z,5.83
2023-05-11T19:16:42.963Z,5.83
2023-05-11T19:19:11.401Z,5.53
2023-05-11T19:21:42.537Z,5.43
2023-05-11T19:24:11.200Z,5.80
2023-05-11T19:26:39.781Z,6.27
2023-05-11T19:29:09.301Z,6.33
2023-05-11T19:31:37.345Z,5.97
2023-05-11T19:34:06.872Z,5.37
2023-05-11T19:36:34.878Z,5.93
2023-05-11T19:39:04.925Z,6.03
2023-05-11T19:41:33.259Z,5.17
2023-05-11T19:44:01.702Z,5.57
2023-05-11T19:46:29.710Z,5.27
2023-05-11T19:48:57.762Z,5.70
2023-05-11T19:51:25.726Z,5.10
2023-05-11T19:53:54.854Z,5.60
2023-05-11T19:56:24.190Z,5.53
2023-05-11T19:58:52.153Z,5.67
2023-05-11T20:01:20.074Z,5.63
2023-05-11T20:03:48.216Z,5.57
2023-05-11T20:06:16.205Z,6.17
2023-05-11T20:08:45.835Z,6.27
2023-05-11T20:11:15.163Z,5.33
2023-05-11T20:13:45.533Z,6.23
2023-05-11T20:16:13.589Z,5.67
2023-05-11T20:18:41.637Z,6.07
2023-05-11T20:21:09.639Z,5.63
2023-05-11T20:23:39.298Z,5.37
2023-05-11T20:26:07.321Z,5.53
2023-05-11T20:28:35.294Z,6.27
2023-05-11T20:31:04.965Z,6.83
2023-05-11T20:36:03.915Z,6.00
2023-05-11T20:38:31.922Z,5.83
2023-05-11T20:40:59.993Z,5.77
2023-05-11T20:43:28.024Z,6.43
2023-05-11T20:45:56.033Z,6.03
2023-05-11T20:48:36.288Z,5.70
2023-05-11T20:51:08.376Z,5.60
2023-05-11T20:53:36.469Z,6.13
2023-05-11T20:56:04.585Z,5.70
2023-05-11T20:58:32.681Z,5.77
2023-05-11T21:01:01.062Z,5.47
2023-05-11T21:03:30.546Z,6.00
2023-05-11T21:05:58.713Z,5.17
2023-05-11T21:08:26.796Z,6.17
2023-05-11T21:10:54.704Z,5.47
2023-05-11T21:13:22.587Z,5.57
2023-05-11T21:15:50.707Z,5.77
2023-05-11T21:18:18.927Z,5.67
2023-05-11T21:20:48.258Z,5.97
2023-05-11T21:23:16.226Z,7.20
2023-05-11T21:25:44.164Z,6.33
2023-05-11T21:28:12.140Z,6.00
2023-05-11T21:30:40.060Z,5.97
2023-05-11T21:33:08.116Z,6.03
2023-05-11T21:35:36.267Z,5.97
2023-05-11T21:38:05.807Z,6.27
2023-05-11T21:40:33.980Z,6.00
2023-05-11T21:43:01.883Z,5.30
2023-05-11T21:45:29.834Z,5.50
2023-05-11T21:47:58.759Z,6.40
2023-05-11T21:50:26.747Z,6.67
2023-05-11T21:52:54.795Z,5.90
2023-05-11T21:55:24.345Z,6.03
2023-05-11T21:57:52.746Z,6.23
2023-05-11T22:00:22.686Z,5.30
2023-05-11T22:02:51.497Z,6.53
2023-05-11T22:05:19.558Z,6.00
2023-05-11T22:07:47.507Z,5.97
2023-05-11T22:10:15.557Z,5.63
2023-05-11T22:12:44.984Z,6.07
2023-05-11T22:15:13.372Z,5.33
2023-05-11T22:17:41.317Z,5.67
2023-05-11T22:20:11.083Z,5.37
2023-05-11T22:22:39.322Z,5.33
2023-05-11T22:25:09.027Z,5.83
2023-05-11T22:27:37.262Z,5.53
2023-05-11T22:30:08.920Z,5.17
2023-05-11T22:32:37.318Z,5.80
2023-05-11T22:35:06.053Z,6.10
2023-05-11T22:37:34.030Z,6.17
2023-05-11T22:40:02.149Z,6.53
2023-05-11T22:42:30.892Z,7.03
2023-05-11T22:44:58.968Z,6.10
2023-05-11T22:47:28.263Z,6.40
2023-05-11T22:49:56.471Z,5.43
2023-05-11T22:52:24.537Z,5.63
2023-05-11T22:54:55.155Z,6.17
2023-05-11T22:57:24.187Z,5.97
2023-05-11T22:59:52.215Z,6.23
2023-05-11T23:02:20.356Z,5.90
2023-05-11T23:04:52.370Z,6.27
2023-05-11T23:07:20.870Z,6.00
2023-05-11T23:09:49.828Z,5.57
2023-05-11T23:12:18.570Z,6.07
2023-05-11T23:14:46.566Z,5.77
2023-05-11T23:17:14.609Z,5.97
2023-05-11T23:19:43.270Z,5.63
2023-05-11T23:22:12.638Z,5.70
2023-05-11T23:24:40.562Z,6.03
2023-05-11T23:27:08.657Z,6.77
2023-05-11T23:29:37.165Z,6.30
2023-05-11T23:32:05.199Z,6.17
2023-05-11T23:34:33.169Z,6.53
2023-05-11T23:37:01.482Z,7.73
2023-05-11T23:39:30.832Z,9.00
2023-05-11T23:41:58.796Z,7.83
2023-05-11T23:44:27.655Z,6.20
2023-05-11T23:46:55.661Z,6.17
2023-05-11T23:49:23.646Z,6.13
2023-05-11T23:51:51.589Z,5.73
2023-05-11T23:54:19.497Z,5.77
2023-05-11T23:56:48.818Z,6.17
2023-05-11T23:59:16.747Z,6.40
